sensor_id;sensor_type;location;lat;lon;timestamp;temperature;humidity
7030;DHT22;3556;53.500;10.176;2023-07-31T00:00:27;13.70;99.90
7030;DHT22;3556;53.500;10.176;2023-07-31T00:02:53;13.80;99.90
7030;DHT22;3556;53.500;10.176;2023-07-31T00:05:19;13.70;99.90
7030;DHT22;3556;53.500;10.176;2023-07-31T00:07:45;13.70;99.90
7030;DHT22;3556;53.500;10.176;2023-07-31T00:10:10;13.80;99.90
7030;DHT22;3556;53.500;10.176;2023-07-31T00:12:42;13.80;99.90
7030;DHT22;3556;53.500;10.176;2023-07-31T00:15:08;13.80;99.90
7030;DHT22;3556;53.500;10.176;2023-07-31T00:17:33;13.80;99.90
7030;DHT22;3556;53.500;10.176;2023-07-31T00:19:59;13.80;99.90
7030;DHT22;3556;53.500;10.176;2023-07-31T00:22:25;13.80;99.90
7030;DHT22;3556;53.500;10.176;2023-07-31T00:24:51;13.80;99.90
7030;DHT22;3556;53.500;10.176;2023-07-31T00:27:17;13.80;99.90
7030;DHT22;3556;53.500;10.176;2023-07-31T00:29:42;13.80;99.90
7030;DHT22;3556;53.500;10.176;2023-07-31T00:32:08;13.80;99.90
7030;DHT22;3556;53.500;10.176;2023-07-31T00:34:34;13.80;99.90
7030;DHT22;3556;53.500;10.176;2023-07-31T00:36:59;13.80;99.90
7030;DHT22;3556;53.500;10.176;2023-07-31T00:39:25;13.80;99.90
7030;DHT22;3556;53.500;10.176;2023-07-31T00:41:50;13.80;99.90
7030;DHT22;3556;53.500;10.176;2023-07-31T00:44:16;13.80;99.90
7030;DHT22;3556;53.500;10.176;2023-07-31T00:46:42;13.80;99.90
7030;DHT22;3556;53.500;10.176;2023-07-31T00:49:07;13.80;99.90
7030;DHT22;3556;53.500;10.176;2023-07-31T00:51:34;13.80;99.90
7030;DHT22;3556;53.500;10.176;2023-07-31T00:53:59;13.90;99.90
7030;DHT22;3556;53.500;10.176;2023-07-31T00:56:27;13.80;99.90
7030;DHT22;3556;53.500;10.176;2023-07-31T00:58:53;13.90;99.90
7030;DHT22;3556;53.500;10.176;2023-07-31T01:01:19;13.90;99.90
7030;DHT22;3556;53.500;10.176;2023-07-31T01:03:44;13.90;99.90
7030;DHT22;3556;53.500;10.176;2023-07-31T01:06:36;13.90;99.90
7030;DHT22;3556;53.500;10.176;2023-07-31T01:12:16;13.90;99.90
7030;DHT22;3556;53.500;10.176;2023-07-31T01:15:01;13.90;99.90
7030;DHT22;3556;53.500;10.176;2023-07-31T01:17:27;13.90;99.90
7030;DHT22;3556;53.500;10.176;2023-07-31T01:19:54;13.80;99.90
7030;DHT22;3556;53.500;10.176;2023-07-31T01:25:41;13.80;99.90
7030;DHT22;3556;53.500;10.176;2023-07-31T01:28:07;13.70;99.90
7030;DHT22;3556;53.500;10.176;2023-07-31T01:30:39;13.70;99.90
7030;DHT22;3556;53.500;10.176;2023-07-31T01:33:06;13.60;99.90
7030;DHT22;3556;53.500;10.176;2023-07-31T01:35:37;13.60;99.90
7030;DHT22;3556;53.500;10.176;2023-07-31T01:38:03;13.60;99.90
7030;DHT22;3556;53.500;10.176;2023-07-31T01:40:28;13.60;99.90
7030;DHT22;3556;53.500;10.176;2023-07-31T01:42:54;13.60;99.90
7030;DHT22;3556;53.500;10.176;2023-07-31T01:45:19;13.60;99.90
7030;DHT22;3556;53.500;10.176;2023-07-31T01:47:45;13.60;99.90
7030;DHT22;3556;53.500;10.176;2023-07-31T01:50:11;13.70;99.90
7030;DHT22;3556;53.500;10.176;2023-07-31T01:52:36;13.70;99.90
7030;DHT22;3556;53.500;10.176;2023-07-31T01:55:02;13.70;99.90
7030;DHT22;3556;53.500;10.176;2023-07-31T01:57:28;13.70;99.90
7030;DHT22;3556;53.500;10.176;2023-07-31T01:59:53;13.70;99.90
7030;DHT22;3556;53.500;10.176;2023-07-31T02:02:20;13.70;99.90
7030;DHT22;3556;53.500;10.176;2023-07-31T02:04:46;13.70;99.90
7030;DHT22;3556;53.500;10.176;2023-07-31T02:07:12;13.80;99.90
7030;DHT22;3556;53.500;10.176;2023-07-31T02:09:37;13.80;99.90
7030;DHT22;3556;53.500;10.176;2023-07-31T02:12:03;13.80;99.90
7030;DHT22;3556;53.500;10.176;2023-07-31T02:14:29;13.80;99.90
7030;DHT22;3556;53.500;10.176;2023-07-31T02:16:54;13.80;99.90
7030;DHT22;3556;53.500;10.176;2023-07-31T02:19:20;13.80;99.90
7030;DHT22;3556;53.500;10.176;2023-07-31T02:21:45;13.80;99.90
7030;DHT22;3556;53.500;10.176;2023-07-31T02:24:11;13.80;99.90
7030;DHT22;3556;53.500;10.176;2023-07-31T02:26:36;13.90;99.90
7030;DHT22;3556;53.500;10.176;2023-07-31T02:29:02;13.90;99.90
7030;DHT22;3556;53.500;10.176;2023-07-31T02:31:28;13.90;99.90
7030;DHT22;3556;53.500;10.176;2023-07-31T02:33:53;13.90;99.90
7030;DHT22;3556;53.500;10.176;2023-07-31T02:36:19;14.00;99.90
7030;DHT22;3556;53.500;10.176;2023-07-31T02:38:44;14.00;99.90
7030;DHT22;3556;53.500;10.176;2023-07-31T02:41:10;14.00;99.90
7030;DHT22;3556;53.500;10.176;2023-07-31T02:43:36;14.00;99.90
7030;DHT22;3556;53.500;10.176;2023-07-31T02:46:01;14.00;99.90
7030;DHT22;3556;53.500;10.176;2023-07-31T02:48:27;14.00;99.90
7030;DHT22;3556;53.500;10.176;2023-07-31T02:50:53;14.00;99.90
7030;DHT22;3556;53.500;10.176;2023-07-31T02:53:19;14.10;99.90
7030;DHT22;3556;53.500;10.176;2023-07-31T02:55:44;14.10;99.90
7030;DHT22;3556;53.500;10.176;2023-07-31T02:58:10;14.10;99.90
7030;DHT22;3556;53.500;10.176;2023-07-31T03:00:35;14.10;99.90
7030;DHT22;3556;53.500;10.176;2023-07-31T03:03:01;14.10;99.90
7030;DHT22;3556;53.500;10.176;2023-07-31T03:05:27;14.10;99.90
7030;DHT22;3556;53.500;10.176;2023-07-31T03:07:52;14.10;99.90
7030;DHT22;3556;53.500;10.176;2023-07-31T03:10:18;14.10;99.90
7030;DHT22;3556;53.500;10.176;2023-07-31T03:12:46;14.20;99.90
7030;DHT22;3556;53.500;10.176;2023-07-31T03:15:13;14.20;99.90
7030;DHT22;3556;53.500;10.176;2023-07-31T03:17:38;14.20;99.90
7030;DHT22;3556;53.500;10.176;2023-07-31T03:20:04;14.20;99.90
7030;DHT22;3556;53.500;10.176;2023-07-31T03:22:30;14.20;99.90
7030;DHT22;3556;53.500;10.176;2023-07-31T03:24:56;14.20;99.90
7030;DHT22;3556;53.500;10.176;2023-07-31T03:27:21;14.20;99.90
7030;DHT22;3556;53.500;10.176;2023-07-31T03:29:47;14.30;99.90
7030;DHT22;3556;53.500;10.176;2023-07-31T03:32:15;14.30;99.90
7030;DHT22;3556;53.500;10.176;2023-07-31T03:34:40;14.30;99.90
7030;DHT22;3556;53.500;10.176;2023-07-31T03:37:06;14.30;99.90
7030;DHT22;3556;53.500;10.176;2023-07-31T03:39:31;14.40;99.90
7030;DHT22;3556;53.500;10.176;2023-07-31T03:41:57;14.30;99.90
7030;DHT22;3556;53.500;10.176;2023-07-31T03:44:23;14.40;99.90
7030;DHT22;3556;53.500;10.176;2023-07-31T03:46:48;14.40;99.90
7030;DHT22;3556;53.500;10.176;2023-07-31T03:49:14;14.40;99.90
7030;DHT22;3556;53.500;10.176;2023-07-31T03:51:39;14.50;99.90
7030;DHT22;3556;53.500;10.176;2023-07-31T03:54:05;14.50;99.90
7030;DHT22;3556;53.500;10.176;2023-07-31T03:56:33;14.50;99.90
7030;DHT22;3556;53.500;10.176;2023-07-31T03:58:58;14.50;99.90
7030;DHT22;3556;53.500;10.176;2023-07-31T04:01:24;14.50;99.90
7030;DHT22;3556;53.500;10.176;2023-07-31T04:03:50;14.50;99.90
7030;DHT22;3556;53.500;10.176;2023-07-31T04:06:15;14.60;99.90
7030;DHT22;3556;53.500;10.176;2023-07-31T04:08:44;14.60;99.90
7030;DHT22;3556;53.500;10.176;2023-07-31T04:11:10;14.60;99.90
7030;DHT22;3556;53.500;10.176;2023-07-31T04:13:37;14.60;99.90
7030;DHT22;3556;53.500;10.176;2023-07-31T04:16:02;14.70;99.90
7030;DHT22;3556;53.500;10.176;2023-07-31T04:18:28;14.70;99.90
7030;DHT22;3556;53.500;10.176;2023-07-31T04:20:56;14.70;99.90
7030;DHT22;3556;53.500;10.176;2023-07-31T04:23:24;14.70;99.90
7030;DHT22;3556;53.500;10.176;2023-07-31T04:25:49;14.70;99.90
7030;DHT22;3556;53.500;10.176;2023-07-31T04:28:15;14.70;99.90
7030;DHT22;3556;53.500;10.176;2023-07-31T04:30:40;14.80;99.90
7030;DHT22;3556;53.500;10.176;2023-07-31T04:33:06;14.80;99.90
7030;DHT22;3556;53.500;10.176;2023-07-31T04:35:31;14.80;99.90
7030;DHT22;3556;53.500;10.176;2023-07-31T04:37:57;14.80;99.90
7030;DHT22;3556;53.500;10.176;2023-07-31T04:40:23;14.70;99.90
7030;DHT22;3556;53.500;10.176;2023-07-31T04:42:48;14.80;99.90
7030;DHT22;3556;53.500;10.176;2023-07-31T04:45:14;14.80;99.90
7030;DHT22;3556;53.500;10.176;2023-07-31T04:47:40;14.80;99.90
7030;DHT22;3556;53.500;10.176;2023-07-31T04:50:06;14.80;99.90
7030;DHT22;3556;53.500;10.176;2023-07-31T04:52:31;14.80;99.90
7030;DHT22;3556;53.500;10.176;2023-07-31T04:54:57;14.80;99.90
7030;DHT22;3556;53.500;10.176;2023-07-31T04:57:23;14.80;99.90
7030;DHT22;3556;53.500;10.176;2023-07-31T04:59:48;14.80;99.90
7030;DHT22;3556;53.500;10.176;2023-07-31T05:02:15;14.80;99.90
7030;DHT22;3556;53.500;10.176;2023-07-31T05:04:40;14.90;99.90
7030;DHT22;3556;53.500;10.176;2023-07-31T05:07:06;14.90;99.90
7030;DHT22;3556;53.500;10.176;2023-07-31T05:09:31;14.90;99.90
7030;DHT22;3556;53.500;10.176;2023-07-31T05:11:57;14.90;99.90
7030;DHT22;3556;53.500;10.176;2023-07-31T05:14:23;14.90;99.90
7030;DHT22;3556;53.500;10.176;2023-07-31T05:16:48;14.90;99.90
7030;DHT22;3556;53.500;10.176;2023-07-31T05:19:14;14.90;99.90
7030;DHT22;3556;53.500;10.176;2023-07-31T05:21:40;14.90;99.90
7030;DHT22;3556;53.500;10.176;2023-07-31T05:24:05;15.00;99.90
7030;DHT22;3556;53.500;10.176;2023-07-31T05:26:31;15.00;99.90
7030;DHT22;3556;53.500;10.176;2023-07-31T05:28:57;15.00;99.90
7030;DHT22;3556;53.500;10.176;2023-07-31T05:31:23;15.00;99.90
7030;DHT22;3556;53.500;10.176;2023-07-31T05:33:50;15.00;99.90
7030;DHT22;3556;53.500;10.176;2023-07-31T05:36:16;15.00;99.90
7030;DHT22;3556;53.500;10.176;2023-07-31T05:38:41;15.00;99.90
7030;DHT22;3556;53.500;10.176;2023-07-31T05:41:09;15.00;99.90
7030;DHT22;3556;53.500;10.176;2023-07-31T05:43:35;15.00;99.90
7030;DHT22;3556;53.500;10.176;2023-07-31T05:46:00;15.00;99.90
7030;DHT22;3556;53.500;10.176;2023-07-31T05:48:26;15.10;99.90
7030;DHT22;3556;53.500;10.176;2023-07-31T05:50:52;15.10;99.90
7030;DHT22;3556;53.500;10.176;2023-07-31T05:53:18;15.00;99.90
7030;DHT22;3556;53.500;10.176;2023-07-31T05:55:43;15.00;99.90
7030;DHT22;3556;53.500;10.176;2023-07-31T05:58:09;15.00;99.90
7030;DHT22;3556;53.500;10.176;2023-07-31T06:00:35;15.10;99.90
7030;DHT22;3556;53.500;10.176;2023-07-31T06:03:00;15.10;99.90
7030;DHT22;3556;53.500;10.176;2023-07-31T06:05:26;15.10;99.90
7030;DHT22;3556;53.500;10.176;2023-07-31T06:07:54;15.10;99.90
7030;DHT22;3556;53.500;10.176;2023-07-31T06:10:19;15.10;99.90
7030;DHT22;3556;53.500;10.176;2023-07-31T06:12:45;15.20;99.90
7030;DHT22;3556;53.500;10.176;2023-07-31T06:15:10;15.20;99.90
7030;DHT22;3556;53.500;10.176;2023-07-31T06:17:36;15.20;99.90
7030;DHT22;3556;53.500;10.176;2023-07-31T06:20:02;15.20;99.90
7030;DHT22;3556;53.500;10.176;2023-07-31T06:22:30;15.30;99.90
7030;DHT22;3556;53.500;10.176;2023-07-31T06:24:56;15.30;99.90
7030;DHT22;3556;53.500;10.176;2023-07-31T06:27:22;15.30;99.90
7030;DHT22;3556;53.500;10.176;2023-07-31T06:29:48;15.30;99.90
7030;DHT22;3556;53.500;10.176;2023-07-31T06:32:13;15.30;99.90
7030;DHT22;3556;53.500;10.176;2023-07-31T06:34:39;15.40;99.90
7030;DHT22;3556;53.500;10.176;2023-07-31T06:37:05;15.40;99.90
7030;DHT22;3556;53.500;10.176;2023-07-31T06:39:30;15.50;99.90
7030;DHT22;3556;53.500;10.176;2023-07-31T06:41:56;15.50;99.90
7030;DHT22;3556;53.500;10.176;2023-07-31T06:44:21;15.50;99.90
7030;DHT22;3556;53.500;10.176;2023-07-31T06:46:47;15.50;99.90
7030;DHT22;3556;53.500;10.176;2023-07-31T06:49:13;15.50;99.90
7030;DHT22;3556;53.500;10.176;2023-07-31T06:51:40;15.50;99.90
7030;DHT22;3556;53.500;10.176;2023-07-31T06:54:07;15.50;99.90
7030;DHT22;3556;53.500;10.176;2023-07-31T06:56:33;15.60;99.90
7030;DHT22;3556;53.500;10.176;2023-07-31T06:58:58;15.60;99.90
7030;DHT22;3556;53.500;10.176;2023-07-31T07:01:24;15.60;99.90
7030;DHT22;3556;53.500;10.176;2023-07-31T07:03:50;15.70;99.90
7030;DHT22;3556;53.500;10.176;2023-07-31T07:06:17;15.80;99.90
7030;DHT22;3556;53.500;10.176;2023-07-31T07:08:43;15.80;99.90
7030;DHT22;3556;53.500;10.176;2023-07-31T07:11:08;15.80;99.90
7030;DHT22;3556;53.500;10.176;2023-07-31T07:13:34;15.80;99.90
7030;DHT22;3556;53.500;10.176;2023-07-31T07:16:00;15.90;99.90
7030;DHT22;3556;53.500;10.176;2023-07-31T07:18:25;15.80;99.90
7030;DHT22;3556;53.500;10.176;2023-07-31T07:20:52;15.80;99.90
7030;DHT22;3556;53.500;10.176;2023-07-31T07:23:18;15.80;99.90
7030;DHT22;3556;53.500;10.176;2023-07-31T07:25:45;15.70;99.90
7030;DHT22;3556;53.500;10.176;2023-07-31T07:28:11;15.80;99.90
7030;DHT22;3556;53.500;10.176;2023-07-31T07:30:36;15.80;99.90
7030;DHT22;3556;53.500;10.176;2023-07-31T07:33:02;15.90;99.90
7030;DHT22;3556;53.500;10.176;2023-07-31T07:35:28;15.90;99.90
7030;DHT22;3556;53.500;10.176;2023-07-31T07:37:54;15.80;99.90
7030;DHT22;3556;53.500;10.176;2023-07-31T07:40:20;15.80;99.90
7030;DHT22;3556;53.500;10.176;2023-07-31T07:42:46;15.90;99.90
7030;DHT22;3556;53.500;10.176;2023-07-31T07:45:12;15.90;99.90
7030;DHT22;3556;53.500;10.176;2023-07-31T07:47:40;15.90;99.90
7030;DHT22;3556;53.500;10.176;2023-07-31T07:50:06;15.90;99.90
7030;DHT22;3556;53.500;10.176;2023-07-31T07:52:32;15.90;99.90
7030;DHT22;3556;53.500;10.176;2023-07-31T07:54:57;16.00;99.90
7030;DHT22;3556;53.500;10.176;2023-07-31T07:57:23;16.10;99.90
7030;DHT22;3556;53.500;10.176;2023-07-31T07:59:48;16.10;99.90
7030;DHT22;3556;53.500;10.176;2023-07-31T08:02:14;16.20;99.90
7030;DHT22;3556;53.500;10.176;2023-07-31T08:04:40;16.20;99.90
7030;DHT22;3556;53.500;10.176;2023-07-31T08:07:05;16.20;99.90
7030;DHT22;3556;53.500;10.176;2023-07-31T08:09:31;16.20;99.90
7030;DHT22;3556;53.500;10.176;2023-07-31T08:11:56;16.30;99.90
7030;DHT22;3556;53.500;10.176;2023-07-31T08:14:27;16.40;99.90
7030;DHT22;3556;53.500;10.176;2023-07-31T08:16:53;16.40;99.90
7030;DHT22;3556;53.500;10.176;2023-07-31T08:19:18;16.40;99.90
7030;DHT22;3556;53.500;10.176;2023-07-31T08:21:44;16.50;99.90
7030;DHT22;3556;53.500;10.176;2023-07-31T08:24:10;16.40;99.90
7030;DHT22;3556;53.500;10.176;2023-07-31T08:26:35;16.40;99.90
7030;DHT22;3556;53.500;10.176;2023-07-31T08:29:01;16.40;99.90
7030;DHT22;3556;53.500;10.176;2023-07-31T08:31:26;16.40;99.90
7030;DHT22;3556;53.500;10.176;2023-07-31T08:33:55;16.40;99.90
7030;DHT22;3556;53.500;10.176;2023-07-31T08:36:21;16.40;99.90
7030;DHT22;3556;53.500;10.176;2023-07-31T08:38:47;16.40;99.90
7030;DHT22;3556;53.500;10.176;2023-07-31T08:41:12;16.40;99.90
7030;DHT22;3556;53.500;10.176;2023-07-31T08:43:47;16.50;99.90
7030;DHT22;3556;53.500;10.176;2023-07-31T08:46:13;16.50;99.90
7030;DHT22;3556;53.500;10.176;2023-07-31T08:48:41;16.50;99.90
7030;DHT22;3556;53.500;10.176;2023-07-31T08:51:07;16.50;99.90
7030;DHT22;3556;53.500;10.176;2023-07-31T08:53:33;16.50;99.90
7030;DHT22;3556;53.500;10.176;2023-07-31T08:55:59;16.60;99.90
7030;DHT22;3556;53.500;10.176;2023-07-31T08:58:25;16.60;99.90
7030;DHT22;3556;53.500;10.176;2023-07-31T09:00:52;16.70;99.90
7030;DHT22;3556;53.500;10.176;2023-07-31T09:03:21;16.70;99.90
7030;DHT22;3556;53.500;10.176;2023-07-31T09:05:48;16.70;99.90
7030;DHT22;3556;53.500;10.176;2023-07-31T09:08:19;16.70;99.90
7030;DHT22;3556;53.500;10.176;2023-07-31T09:10:46;16.80;99.90
7030;DHT22;3556;53.500;10.176;2023-07-31T09:13:12;16.80;99.90
7030;DHT22;3556;53.500;10.176;2023-07-31T09:15:39;16.90;99.90
7030;DHT22;3556;53.500;10.176;2023-07-31T09:18:05;16.90;99.90
7030;DHT22;3556;53.500;10.176;2023-07-31T09:20:32;17.00;99.90
7030;DHT22;3556;53.500;10.176;2023-07-31T09:23:12;17.00;99.90
7030;DHT22;3556;53.500;10.176;2023-07-31T09:25:39;17.00;99.90
7030;DHT22;3556;53.500;10.176;2023-07-31T09:28:08;17.10;99.90
7030;DHT22;3556;53.500;10.176;2023-07-31T09:30:46;17.10;99.90
7030;DHT22;3556;53.500;10.176;2023-07-31T09:33:12;17.10;99.90
7030;DHT22;3556;53.500;10.176;2023-07-31T09:35:38;17.10;99.90
7030;DHT22;3556;53.500;10.176;2023-07-31T09:38:10;17.10;99.90
7030;DHT22;3556;53.500;10.176;2023-07-31T09:40:39;17.10;99.90
7030;DHT22;3556;53.500;10.176;2023-07-31T09:43:09;17.10;99.90
7030;DHT22;3556;53.500;10.176;2023-07-31T09:45:40;17.10;99.90
7030;DHT22;3556;53.500;10.176;2023-07-31T09:48:15;17.10;99.90
7030;DHT22;3556;53.500;10.176;2023-07-31T09:50:49;17.10;99.90
7030;DHT22;3556;53.500;10.176;2023-07-31T09:53:16;17.10;99.90
7030;DHT22;3556;53.500;10.176;2023-07-31T09:55:42;17.10;99.90
7030;DHT22;3556;53.500;10.176;2023-07-31T09:58:09;17.20;99.90
7030;DHT22;3556;53.500;10.176;2023-07-31T10:00:36;17.10;99.90
7030;DHT22;3556;53.500;10.176;2023-07-31T10:03:05;17.20;99.90
7030;DHT22;3556;53.500;10.176;2023-07-31T10:05:34;17.20;99.90
7030;DHT22;3556;53.500;10.176;2023-07-31T10:08:00;17.20;99.90
7030;DHT22;3556;53.500;10.176;2023-07-31T10:10:26;17.20;99.90
7030;DHT22;3556;53.500;10.176;2023-07-31T10:12:54;17.10;99.90
7030;DHT22;3556;53.500;10.176;2023-07-31T10:15:20;17.10;99.90
7030;DHT22;3556;53.500;10.176;2023-07-31T10:17:49;17.10;99.90
7030;DHT22;3556;53.500;10.176;2023-07-31T10:20:16;17.10;99.90
7030;DHT22;3556;53.500;10.176;2023-07-31T10:22:42;17.00;99.90
7030;DHT22;3556;53.500;10.176;2023-07-31T10:25:09;17.00;99.90
7030;DHT22;3556;53.500;10.176;2023-07-31T10:27:36;16.90;99.90
7030;DHT22;3556;53.500;10.176;2023-07-31T10:30:05;17.00;99.90
7030;DHT22;3556;53.500;10.176;2023-07-31T10:32:33;17.00;99.90
7030;DHT22;3556;53.500;10.176;2023-07-31T10:35:01;17.00;99.90
7030;DHT22;3556;53.500;10.176;2023-07-31T10:37:37;17.00;99.90
7030;DHT22;3556;53.500;10.176;2023-07-31T10:40:09;17.00;99.90
7030;DHT22;3556;53.500;10.176;2023-07-31T10:42:46;17.00;99.90
7030;DHT22;3556;53.500;10.176;2023-07-31T10:45:13;17.00;99.90
7030;DHT22;3556;53.500;10.176;2023-07-31T10:47:46;17.00;99.90
7030;DHT22;3556;53.500;10.176;2023-07-31T10:50:22;17.00;99.90
7030;DHT22;3556;53.500;10.176;2023-07-31T10:52:54;17.00;99.90
7030;DHT22;3556;53.500;10.176;2023-07-31T10:55:40;17.00;99.90
7030;DHT22;3556;53.500;10.176;2023-07-31T10:58:11;17.10;99.90
7030;DHT22;3556;53.500;10.176;2023-07-31T11:00:38;17.20;99.90
7030;DHT22;3556;53.500;10.176;2023-07-31T11:10:39;17.50;99.90
7030;DHT22;3556;53.500;10.176;2023-07-31T11:13:05;17.50;99.90
7030;DHT22;3556;53.500;10.176;2023-07-31T11:15:31;17.60;99.90
7030;DHT22;3556;53.500;10.176;2023-07-31T11:17:56;17.60;99.90
7030;DHT22;3556;53.500;10.176;2023-07-31T11:20:25;17.70;99.90
7030;DHT22;3556;53.500;10.176;2023-07-31T11:22:50;17.80;99.90
7030;DHT22;3556;53.500;10.176;2023-07-31T11:25:16;17.80;99.90
7030;DHT22;3556;53.500;10.176;2023-07-31T11:27:43;17.90;99.90
7030;DHT22;3556;53.500;10.176;2023-07-31T11:30:09;17.90;99.90
7030;DHT22;3556;53.500;10.176;2023-07-31T11:32:38;17.90;99.90
7030;DHT22;3556;53.500;10.176;2023-07-31T11:35:04;17.90;99.90
7030;DHT22;3556;53.500;10.176;2023-07-31T11:37:43;17.90;99.90
7030;DHT22;3556;53.500;10.176;2023-07-31T11:40:10;17.80;99.90
7030;DHT22;3556;53.500;10.176;2023-07-31T11:42:36;17.80;99.90
7030;DHT22;3556;53.500;10.176;2023-07-31T11:45:05;17.70;99.90
7030;DHT22;3556;53.500;10.176;2023-07-31T11:47:36;17.70;99.90
7030;DHT22;3556;53.500;10.176;2023-07-31T11:50:05;17.70;99.90
7030;DHT22;3556;53.500;10.176;2023-07-31T11:52:35;17.70;99.90
7030;DHT22;3556;53.500;10.176;2023-07-31T11:55:03;17.70;99.90
7030;DHT22;3556;53.500;10.176;2023-07-31T11:57:29;17.60;99.90
7030;DHT22;3556;53.500;10.176;2023-07-31T11:59:56;17.70;99.90
7030;DHT22;3556;53.500;10.176;2023-07-31T12:02:22;17.70;99.90
7030;DHT22;3556;53.500;10.176;2023-07-31T12:04:48;17.70;99.90
7030;DHT22;3556;53.500;10.176;2023-07-31T12:07:14;17.70;99.90
7030;DHT22;3556;53.500;10.176;2023-07-31T12:09:54;17.80;99.90
7030;DHT22;3556;53.500;10.176;2023-07-31T12:12:24;17.70;99.90
7030;DHT22;3556;53.500;10.176;2023-07-31T12:14:50;17.70;99.90
7030;DHT22;3556;53.500;10.176;2023-07-31T12:17:17;17.70;99.90
7030;DHT22;3556;53.500;10.176;2023-07-31T12:19:44;17.70;99.90
7030;DHT22;3556;53.500;10.176;2023-07-31T12:22:14;17.70;99.90
7030;DHT22;3556;53.500;10.176;2023-07-31T12:24:41;17.60;99.90
7030;DHT22;3556;53.500;10.176;2023-07-31T12:27:14;17.60;99.90
7030;DHT22;3556;53.500;10.176;2023-07-31T12:29:41;17.60;99.90
7030;DHT22;3556;53.500;10.176;2023-07-31T12:32:22;17.70;99.90
7030;DHT22;3556;53.500;10.176;2023-07-31T12:34:48;17.70;99.90
7030;DHT22;3556;53.500;10.176;2023-07-31T12:37:13;17.70;99.90
7030;DHT22;3556;53.500;10.176;2023-07-31T12:39:39;17.80;99.90
7030;DHT22;3556;53.500;10.176;2023-07-31T12:42:05;17.80;99.90
7030;DHT22;3556;53.500;10.176;2023-07-31T12:44:31;17.80;99.90
7030;DHT22;3556;53.500;10.176;2023-07-31T12:46:57;17.80;99.90
7030;DHT22;3556;53.500;10.176;2023-07-31T12:49:22;17.80;99.90
7030;DHT22;3556;53.500;10.176;2023-07-31T12:51:48;17.80;99.90
7030;DHT22;3556;53.500;10.176;2023-07-31T12:54:14;17.90;99.90
7030;DHT22;3556;53.500;10.176;2023-07-31T12:56:40;17.90;99.90
7030;DHT22;3556;53.500;10.176;2023-07-31T12:59:05;17.90;99.90
7030;DHT22;3556;53.500;10.176;2023-07-31T13:01:31;17.90;99.90
7030;DHT22;3556;53.500;10.176;2023-07-31T13:03:57;17.90;99.90
7030;DHT22;3556;53.500;10.176;2023-07-31T13:06:25;17.90;99.90
7030;DHT22;3556;53.500;10.176;2023-07-31T13:08:51;18.00;99.90
7030;DHT22;3556;53.500;10.176;2023-07-31T13:11:17;18.00;99.90
7030;DHT22;3556;53.500;10.176;2023-07-31T13:13:42;18.00;99.90
7030;DHT22;3556;53.500;10.176;2023-07-31T13:16:08;18.00;99.90
7030;DHT22;3556;53.500;10.176;2023-07-31T13:18:33;18.00;99.90
7030;DHT22;3556;53.500;10.176;2023-07-31T13:20:59;18.00;99.90
7030;DHT22;3556;53.500;10.176;2023-07-31T13:23:25;18.00;99.90
7030;DHT22;3556;53.500;10.176;2023-07-31T13:25:50;18.10;99.90
7030;DHT22;3556;53.500;10.176;2023-07-31T13:28:16;18.00;99.90
7030;DHT22;3556;53.500;10.176;2023-07-31T13:30:42;18.00;99.90
7030;DHT22;3556;53.500;10.176;2023-07-31T13:33:07;18.00;99.90
7030;DHT22;3556;53.500;10.176;2023-07-31T13:35:33;18.00;99.90
7030;DHT22;3556;53.500;10.176;2023-07-31T13:37:58;17.90;99.90
7030;DHT22;3556;53.500;10.176;2023-07-31T13:40:24;18.00;99.90
7030;DHT22;3556;53.500;10.176;2023-07-31T13:42:49;18.00;99.90
7030;DHT22;3556;53.500;10.176;2023-07-31T13:45:15;18.00;99.90
7030;DHT22;3556;53.500;10.176;2023-07-31T13:47:41;18.00;99.90
7030;DHT22;3556;53.500;10.176;2023-07-31T13:50:07;18.00;99.90
7030;DHT22;3556;53.500;10.176;2023-07-31T13:52:32;18.00;99.90
7030;DHT22;3556;53.500;10.176;2023-07-31T13:54:58;18.10;99.90
7030;DHT22;3556;53.500;10.176;2023-07-31T13:57:23;18.10;99.90
7030;DHT22;3556;53.500;10.176;2023-07-31T13:59:49;18.20;99.90
7030;DHT22;3556;53.500;10.176;2023-07-31T14:02:14;18.20;99.90
7030;DHT22;3556;53.500;10.176;2023-07-31T14:04:40;18.20;99.90
7030;DHT22;3556;53.500;10.176;2023-07-31T14:07:06;18.30;99.90
7030;DHT22;3556;53.500;10.176;2023-07-31T14:09:32;18.30;99.90
7030;DHT22;3556;53.500;10.176;2023-07-31T14:11:58;18.30;99.90
7030;DHT22;3556;53.500;10.176;2023-07-31T14:14:23;18.30;99.90
7030;DHT22;3556;53.500;10.176;2023-07-31T14:16:49;18.40;99.90
7030;DHT22;3556;53.500;10.176;2023-07-31T14:19:15;18.40;99.90
7030;DHT22;3556;53.500;10.176;2023-07-31T14:21:40;18.40;99.90
7030;DHT22;3556;53.500;10.176;2023-07-31T14:24:06;18.40;99.90
7030;DHT22;3556;53.500;10.176;2023-07-31T14:26:31;18.30;99.90
7030;DHT22;3556;53.500;10.176;2023-07-31T14:28:57;18.30;99.90
7030;DHT22;3556;53.500;10.176;2023-07-31T14:31:23;18.30;99.90
7030;DHT22;3556;53.500;10.176;2023-07-31T14:33:48;18.20;99.90
7030;DHT22;3556;53.500;10.176;2023-07-31T14:36:14;18.20;99.90
7030;DHT22;3556;53.500;10.176;2023-07-31T14:38:40;18.10;99.90
7030;DHT22;3556;53.500;10.176;2023-07-31T14:41:05;18.10;99.90
7030;DHT22;3556;53.500;10.176;2023-07-31T14:43:31;18.10;99.90
7030;DHT22;3556;53.500;10.176;2023-07-31T14:45:57;18.00;99.90
7030;DHT22;3556;53.500;10.176;2023-07-31T14:48:25;18.00;99.90
7030;DHT22;3556;53.500;10.176;2023-07-31T14:50:52;18.00;99.90
7030;DHT22;3556;53.500;10.176;2023-07-31T14:53:17;18.00;99.90
7030;DHT22;3556;53.500;10.176;2023-07-31T14:55:43;18.00;99.90
7030;DHT22;3556;53.500;10.176;2023-07-31T14:58:08;18.00;99.90
7030;DHT22;3556;53.500;10.176;2023-07-31T15:00:36;18.10;99.90
7030;DHT22;3556;53.500;10.176;2023-07-31T15:03:02;18.10;99.90
7030;DHT22;3556;53.500;10.176;2023-07-31T15:05:28;18.10;99.90
7030;DHT22;3556;53.500;10.176;2023-07-31T15:07:53;18.10;99.90
7030;DHT22;3556;53.500;10.176;2023-07-31T15:10:19;18.10;99.90
7030;DHT22;3556;53.500;10.176;2023-07-31T15:12:45;18.10;99.90
7030;DHT22;3556;53.500;10.176;2023-07-31T15:15:10;18.10;99.90
7030;DHT22;3556;53.500;10.176;2023-07-31T15:17:36;18.10;99.90
7030;DHT22;3556;53.500;10.176;2023-07-31T15:20:02;18.10;99.90
7030;DHT22;3556;53.500;10.176;2023-07-31T15:22:27;18.00;99.90
7030;DHT22;3556;53.500;10.176;2023-07-31T15:24:53;18.10;99.90
7030;DHT22;3556;53.500;10.176;2023-07-31T15:27:19;18.10;99.90
7030;DHT22;3556;53.500;10.176;2023-07-31T15:29:44;18.10;99.90
7030;DHT22;3556;53.500;10.176;2023-07-31T15:32:10;18.10;99.90
7030;DHT22;3556;53.500;10.176;2023-07-31T15:34:35;18.10;99.90
7030;DHT22;3556;53.500;10.176;2023-07-31T15:37:01;18.10;99.90
7030;DHT22;3556;53.500;10.176;2023-07-31T15:39:27;18.00;99.90
7030;DHT22;3556;53.500;10.176;2023-07-31T15:41:52;18.10;99.90
7030;DHT22;3556;53.500;10.176;2023-07-31T15:44:18;18.10;99.90
7030;DHT22;3556;53.500;10.176;2023-07-31T15:46:44;18.10;99.90
7030;DHT22;3556;53.500;10.176;2023-07-31T15:49:10;18.00;99.90
7030;DHT22;3556;53.500;10.176;2023-07-31T15:51:35;18.00;99.90
7030;DHT22;3556;53.500;10.176;2023-07-31T15:54:01;18.00;99.90